createdAt,value
2023-03-24T00:03:21.738Z,12.20
2023-03-24T00:08:22.577Z,12.20
2023-03-24T00:13:20.950Z,12.20
2023-03-24T00:18:22.635Z,12.30
2023-03-24T00:23:22.445Z,12.30
2023-03-24T00:28:20.846Z,12.20
2023-03-24T00:33:20.451Z,12.00
2023-03-24T00:38:19.707Z,11.90
2023-03-24T00:43:19.580Z,11.90
2023-03-24T00:48:24.365Z,11.90
2023-03-24T00:53:25.941Z,11.90
2023-03-24T00:58:24.321Z,11.90
2023-03-24T01:03:27.970Z,11.90
2023-03-24T01:08:28.265Z,12.00
2023-03-24T01:13:29.278Z,12.00
2023-03-24T01:18:29.025Z,12.10
2023-03-24T01:23:27.642Z,12.10
2023-03-24T01:28:27.414Z,12.10
2023-03-24T01:33:25.871Z,12.10
2023-03-24T01:38:25.786Z,12.10
2023-03-24T01:43:31.412Z,12.20
2023-03-24T01:48:35.090Z,12.20
2023-03-24T01:53:38.546Z,12.20
2023-03-24T01:58:39.171Z,12.20
2023-03-24T02:03:47.401Z,12.10
2023-03-24T02:08:52.441Z,12.10
2023-03-24T02:13:51.387Z,12.10
2023-03-24T02:19:01.150Z,12.20
2023-03-24T02:24:45.793Z,12.10
2023-03-24T02:30:19.860Z,12.20
2023-03-24T02:35:57.535Z,12.20
2023-03-24T02:41:02.262Z,12.10
2023-03-24T02:46:14.331Z,12.30
2023-03-24T02:51:18.714Z,12.20
2023-03-24T02:56:24.554Z,12.20
2023-03-24T03:01:32.658Z,12.10
2023-03-24T03:06:54.920Z,12.20
2023-03-24T03:11:58.803Z,12.20
2023-03-24T03:17:01.705Z,12.20
2023-03-24T03:22:01.062Z,12.20
2023-03-24T03:27:05.932Z,12.10
2023-03-24T03:32:08.052Z,12.10
2023-03-24T03:37:11.079Z,12.10
2023-03-24T03:42:10.971Z,12.30
2023-03-24T03:47:10.422Z,12.30
2023-03-24T03:52:14.906Z,12.20
2023-03-24T03:57:16.017Z,12.30
2023-03-24T04:02:52.695Z,12.20
2023-03-24T04:08:09.688Z,12.20
2023-03-24T04:13:39.266Z,12.30
2023-03-24T04:19:08.642Z,12.30
2023-03-24T04:24:19.381Z,12.30
2023-03-24T04:29:26.080Z,12.30
2023-03-24T04:34:29.359Z,12.30
2023-03-24T04:39:39.088Z,12.40
2023-03-24T04:44:44.031Z,12.40
2023-03-24T04:50:03.156Z,12.40
2023-03-24T04:55:03.591Z,12.60
2023-03-24T05:00:08.360Z,12.60
2023-03-24T05:05:07.679Z,12.60
2023-03-24T05:10:11.296Z,12.60
2023-03-24T05:15:16.858Z,12.70
2023-03-24T05:20:17.066Z,12.70
2023-03-24T05:25:20.547Z,12.80
2023-03-24T05:30:20.989Z,12.80
2023-03-24T05:35:22.584Z,12.90
2023-03-24T05:40:21.025Z,12.90
2023-03-24T05:45:39.130Z,12.90
2023-03-24T05:50:37.581Z,12.90
2023-03-24T05:55:37.209Z,13.00
2023-03-24T06:00:50.159Z,13.10
2023-03-24T06:06:01.189Z,13.10
2023-03-24T06:11:02.414Z,13.10
2023-03-24T06:16:03.930Z,13.10
2023-03-24T06:21:10.028Z,13.10
2023-03-24T06:26:11.842Z,13.20
2023-03-24T06:31:38.255Z,13.30
2023-03-24T06:36:37.029Z,13.40
2023-03-24T06:41:37.217Z,13.40
2023-03-24T06:46:37.131Z,13.50
2023-03-24T06:51:35.845Z,13.70
2023-03-24T06:56:34.820Z,13.60
2023-03-24T07:01:35.320Z,13.50
2023-03-24T07:07:01.337Z,13.60
2023-03-24T07:12:07.195Z,13.70
2023-03-24T07:17:07.329Z,13.80
2023-03-24T07:22:15.368Z,13.90
2023-03-24T07:27:33.926Z,14.00
2023-03-24T07:32:35.065Z,14.30
2023-03-24T07:37:34.972Z,14.40
2023-03-24T07:42:33.279Z,14.50
2023-03-24T07:48:03.711Z,14.40
2023-03-24T07:53:09.877Z,14.40
2023-03-24T07:58:08.835Z,14.40
2023-03-24T08:03:09.724Z,14.40
2023-03-24T08:08:18.296Z,14.30
2023-03-24T08:13:17.094Z,14.30
2023-03-24T08:18:16.266Z,14.10
2023-03-24T08:23:14.641Z,14.00
2023-03-24T08:28:14.304Z,14.00
2023-03-24T08:33:14.550Z,14.00
2023-03-24T08:38:15.664Z,13.90
2023-03-24T08:43:17.613Z,13.90
2023-03-24T08:48:16.255Z,13.90
2023-03-24T08:53:14.277Z,13.90
2023-03-24T08:58:17.077Z,14.00
2023-03-24T09:03:18.738Z,14.00
2023-03-24T09:08:19.155Z,14.10
2023-03-24T09:13:20.247Z,14.10
2023-03-24T09:18:19.136Z,14.20
2023-03-24T09:23:17.466Z,14.20
2023-03-24T09:28:16.173Z,14.10
2023-03-24T09:33:16.071Z,14.20
2023-03-24T09:38:14.312Z,14.30
2023-03-24T09:43:23.943Z,14.60
2023-03-24T09:48:32.666Z,15.70
2023-03-24T09:53:38.424Z,16.20
2023-03-24T09:58:41.601Z,16.50
2023-03-24T10:03:41.947Z,16.30
2023-03-24T10:08:44.303Z,16.10
2023-03-24T10:13:55.361Z,15.90
2023-03-24T10:19:02.444Z,15.70
2023-03-24T10:24:07.891Z,15.40
2023-03-24T10:29:18.673Z,15.40
2023-03-24T10:34:18.911Z,15.40
2023-03-24T10:39:21.086Z,15.70
2023-03-24T10:44:22.370Z,16.50
2023-03-24T10:49:23.302Z,16.90
2023-03-24T10:54:23.559Z,16.70
2023-03-24T10:59:27.522Z,16.70
2023-03-24T11:04:28.738Z,16.40
2023-03-24T11:09:26.801Z,16.30
2023-03-24T11:14:27.734Z,16.30
2023-03-24T11:19:27.511Z,16.30
2023-03-24T11:24:26.659Z,16.40
2023-03-24T11:29:28.136Z,17.70
2023-03-24T11:34:34.210Z,18.20
2023-03-24T11:39:34.316Z,17.40
2023-03-24T11:44:42.901Z,17.60
2023-03-24T11:49:46.639Z,17.80
2023-03-24T11:54:45.123Z,18.00
2023-03-24T11:59:51.726Z,18.50
2023-03-24T12:05:14.997Z,18.40
2023-03-24T12:10:22.792Z,18.00
2023-03-24T12:15:30.348Z,17.60
2023-03-24T12:20:34.605Z,17.40
2023-03-24T12:25:55.741Z,17.40
2023-03-24T12:31:09.020Z,17.30
2023-03-24T12:36:21.929Z,17.20
2023-03-24T12:41:39.050Z,17.00
2023-03-24T12:46:48.411Z,16.80
2023-03-24T12:51:58.718Z,16.80
2023-03-24T12:57:00.332Z,16.70
2023-03-24T13:02:09.679Z,16.70
2023-03-24T13:07:12.144Z,16.50
2023-03-24T13:12:15.532Z,16.30
2023-03-24T13:17:19.727Z,16.20
2023-03-24T13:22:21.405Z,16.20
2023-03-24T13:27:24.701Z,16.10
2023-03-24T13:32:30.609Z,16.10
2023-03-24T13:37:37.446Z,16.20
2023-03-24T13:42:39.047Z,16.20
2023-03-24T13:47:50.971Z,16.10
2023-03-24T13:52:51.621Z,16.20
2023-03-24T13:57:56.729Z,16.30
2023-03-24T14:02:56.268Z,16.40
2023-03-24T14:08:12.196Z,16.10
2023-03-24T14:13:24.478Z,16.00
2023-03-24T14:18:43.841Z,16.00
2023-03-24T14:23:45.904Z,16.00
2023-03-24T14:28:46.859Z,16.10
2023-03-24T14:34:02.227Z,16.20
2023-03-24T14:39:13.761Z,16.20
2023-03-24T14:44:12.759Z,16.10
2023-03-24T14:49:24.866Z,16.10
2023-03-24T14:54:34.968Z,16.10
2023-03-24T14:59:42.384Z,16.10
2023-03-24T15:04:40.702Z,16.30
2023-03-24T15:09:49.176Z,16.30
2023-03-24T15:14:47.621Z,16.30
2023-03-24T15:19:46.922Z,16.20
2023-03-24T15:24:49.423Z,16.20
2023-03-24T15:29:54.162Z,16.30
2023-03-24T15:34:54.222Z,16.50
2023-03-24T15:40:05.249Z,16.90
2023-03-24T15:45:23.719Z,17.40
2023-03-24T15:50:34.551Z,17.70
2023-03-24T15:55:35.931Z,18.20
2023-03-24T16:00:41.198Z,18.30
2023-03-24T16:05:51.342Z,18.40
2023-03-24T16:10:58.567Z,19.10
2023-03-24T16:15:59.031Z,19.90
2023-03-24T16:20:57.611Z,20.10
2023-03-24T16:25:57.236Z,18.70
2023-03-24T16:31:01.169Z,17.60
2023-03-24T16:35:59.830Z,16.80
2023-03-24T16:40:59.476Z,16.50
2023-03-24T16:45:57.566Z,17.20
2023-03-24T16:50:58.307Z,17.70
2023-03-24T16:55:56.508Z,17.30
2023-03-24T17:00:58.986Z,16.90
2023-03-24T17:05:58.376Z,16.40
2023-03-24T17:10:58.014Z,16.00
2023-03-24T17:15:57.690Z,15.80
2023-03-24T17:20:56.260Z,15.80
2023-03-24T17:25:54.507Z,15.80
2023-03-24T17:30:52.796Z,15.60
2023-03-24T17:35:53.080Z,15.60
2023-03-24T17:41:00.320Z,15.60
2023-03-24T17:45:59.280Z,15.50
2023-03-24T17:50:58.891Z,15.50
2023-03-24T17:55:59.053Z,15.40
2023-03-24T18:01:00.016Z,15.40
2023-03-24T18:06:09.562Z,15.30
2023-03-24T18:11:09.937Z,15.20
2023-03-24T18:16:19.968Z,15.10
2023-03-24T18:21:22.640Z,15.10
2023-03-24T18:26:21.661Z,15.10
2023-03-24T18:31:22.135Z,15.00
2023-03-24T18:36:26.607Z,14.80
2023-03-24T18:41:26.973Z,14.80
2023-03-24T18:46:26.591Z,14.60
2023-03-24T18:51:27.068Z,14.50
2023-03-24T18:56:25.934Z,14.40
2023-03-24T19:01:24.301Z,14.20
2023-03-24T19:06:26.312Z,14.30
2023-03-24T19:11:26.388Z,14.00
2023-03-24T19:16:25.020Z,13.90
2023-03-24T19:21:24.064Z,13.90
2023-03-24T19:26:22.683Z,13.80
2023-03-24T19:31:22.436Z,13.80
2023-03-24T19:36:21.003Z,13.70
2023-03-24T19:41:19.282Z,13.60
2023-03-24T19:46:21.060Z,13.60
2023-03-24T19:51:21.334Z,13.50
2023-03-24T19:56:20.667Z,13.50
2023-03-24T20:01:19.407Z,13.50
2023-03-24T20:06:19.681Z,13.50
2023-03-24T20:11:19.612Z,13.50
2023-03-24T20:16:17.942Z,13.40
2023-03-24T20:21:22.389Z,13.20
2023-03-24T20:26:22.752Z,12.90
2023-03-24T20:31:21.058Z,12.80
2023-03-24T20:36:19.437Z,12.60
2023-03-24T20:41:19.574Z,12.60
2023-03-24T20:46:19.482Z,12.40
2023-03-24T20:51:18.398Z,12.30
2023-03-24T20:56:16.831Z,12.20
2023-03-24T21:01:20.752Z,12.20
2023-03-24T21:06:21.680Z,12.20
2023-03-24T21:11:19.928Z,12.30
2023-03-24T21:16:19.770Z,12.20
2023-03-24T21:21:18.077Z,12.20
2023-03-24T21:26:18.477Z,12.20
2023-03-24T21:31:20.642Z,12.20
2023-03-24T21:36:19.214Z,12.30
2023-03-24T21:41:19.878Z,12.30
2023-03-24T21:46:22.094Z,12.30
2023-03-24T21:51:24.141Z,12.30
2023-03-24T21:56:23.885Z,12.30
2023-03-24T22:01:22.311Z,12.40
2023-03-24T22:06:21.945Z,12.30
2023-03-24T22:11:20.262Z,12.30
2023-03-24T22:16:19.901Z,12.20
2023-03-24T22:21:17.978Z,12.10
2023-03-24T22:26:17.924Z,12.00
2023-03-24T22:31:17.422Z,12.00
2023-03-24T22:36:17.219Z,11.90
2023-03-24T22:41:15.705Z,12.00
2023-03-24T22:46:13.923Z,11.90
2023-03-24T22:51:16.976Z,11.90
2023-03-24T22:56:17.211Z,11.90
2023-03-24T23:01:15.819Z,11.80
2023-03-24T23:06:15.957Z,11.70
2023-03-24T23:11:14.280Z,11.60
2023-03-24T23:16:13.939Z,11.40
2023-03-24T23:21:14.434Z,11.30
2023-03-24T23:26:25.427Z,11.30
2023-03-24T23:31:28.754Z,11.20
2023-03-24T23:36:28.491Z,11.20
2023-03-24T23:41:26.983Z,11.10
2023-03-24T23:46:26.589Z,11.00
2023-03-24T23:51:24.869Z,10.90
2023-03-24T23:56:23.109Z,10.80
